sensor_id;sensor_type;location;lat;lon;timestamp;pressure;altitude;pressure_sealevel;temperature;humidity
46506;BME280;32220;49.808;9.968;2024-03-06T08:29:05;99203.84;;;8.53;100.00
46506;BME280;32220;49.808;9.968;2024-03-06T08:31:33;99204.81;;;9.04;100.00
46506;BME280;32220;49.808;9.968;2024-03-06T08:34:00;99205.69;;;9.54;100.00
46506;BME280;32220;49.808;9.968;2024-03-06T08:36:28;99216.81;;;9.94;100.00
46506;BME280;32220;49.808;9.968;2024-03-06T08:38:55;99213.63;;;10.20;100.00
46506;BME280;32220;49.808;9.968;2024-03-06T08:41:23;99216.94;;;10.39;100.00
46506;BME280;32220;49.808;9.968;2024-03-06T08:43:50;99209.34;;;10.49;100.00
46506;BME280;32220;49.808;9.968;2024-03-06T08:46:19;99227.44;;;10.57;100.00
46506;BME280;32220;49.808;9.968;2024-03-06T08:48:47;99212.09;;;10.48;100.00
46506;BME280;32220;49.808;9.968;2024-03-06T08:51:15;99235.31;;;10.58;100.00
46506;BME280;32220;49.808;9.968;2024-03-06T08:53:43;99236.00;;;10.62;100.00
46506;BME280;32220;49.808;9.968;2024-03-06T08:56:10;99233.25;;;10.63;100.00
46506;BME280;32220;49.808;9.968;2024-03-06T08:58:38;99226.34;;;10.61;100.00
46506;BME280;32220;49.808;9.968;2024-03-06T09:01:05;99249.50;;;10.73;100.00
46506;BME280;32220;49.808;9.968;2024-03-06T09:03:34;99242.31;;;10.75;100.00
46506;BME280;32220;49.808;9.968;2024-03-06T09:06:02;99251.19;;;10.74;99.48
46506;BME280;32220;49.808;9.968;2024-03-06T09:08:30;99253.00;;;10.73;99.27
46506;BME280;32220;49.808;9.968;2024-03-06T09:10:57;99255.44;;;10.76;97.85
46506;BME280;32220;49.808;9.968;2024-03-06T09:13:25;99264.16;;;10.78;97.42
46506;BME280;32220;49.808;9.968;2024-03-06T09:15:52;99257.34;;;10.74;96.51
46506;BME280;32220;49.808;9.968;2024-03-06T09:18:20;99260.66;;;10.78;96.62
46506;BME280;32220;49.808;9.968;2024-03-06T09:20:49;99258.22;;;10.75;96.69
46506;BME280;32220;49.808;9.968;2024-03-06T09:23:16;99264.84;;;10.82;95.94
46506;BME280;32220;49.808;9.968;2024-03-06T09:25:44;99271.16;;;10.95;96.49
46506;BME280;32220;49.808;9.968;2024-03-06T09:28:11;99274.97;;;11.05;95.69
46506;BME280;32220;49.808;9.968;2024-03-06T09:30:39;99273.31;;;11.19;94.88
46506;BME280;32220;49.808;9.968;2024-03-06T09:33:07;99269.81;;;11.18;93.48
46506;BME280;32220;49.808;9.968;2024-03-06T09:35:35;99256.75;;;11.15;94.20
46506;BME280;32220;49.808;9.968;2024-03-06T09:38:04;99280.75;;;11.28;93.55
46506;BME280;32220;49.808;9.968;2024-03-06T09:40:32;99284.06;;;11.31;93.71
46506;BME280;32220;49.808;9.968;2024-03-06T09:42:59;99287.50;;;11.33;92.98
46506;BME280;32220;49.808;9.968;2024-03-06T09:45:27;99291.78;;;11.36;91.98
46506;BME280;32220;49.808;9.968;2024-03-06T09:47:54;99287.19;;;11.38;91.67
46506;BME280;32220;49.808;9.968;2024-03-06T09:50:23;99284.22;;;11.44;91.16
46506;BME280;32220;49.808;9.968;2024-03-06T09:52:52;99274.28;;;11.47;90.42
46506;BME280;32220;49.808;9.968;2024-03-06T09:55:24;99292.31;;;11.71;90.29
46506;BME280;32220;49.808;9.968;2024-03-06T09:57:52;99301.38;;;11.82;90.23
46506;BME280;32220;49.808;9.968;2024-03-06T10:00:19;99301.84;;;11.89;89.93
46506;BME280;32220;49.808;9.968;2024-03-06T10:02:52;99303.47;;;11.92;89.77
46506;BME280;32220;49.808;9.968;2024-03-06T10:05:22;99300.81;;;11.92;89.15
46506;BME280;32220;49.808;9.968;2024-03-06T10:07:51;99299.84;;;11.78;87.68
46506;BME280;32220;49.808;9.968;2024-03-06T10:10:19;99296.25;;;11.79;88.18
46506;BME280;32220;49.808;9.968;2024-03-06T10:12:50;99313.31;;;11.90;87.33
46506;BME280;32220;49.808;9.968;2024-03-06T10:15:18;99293.97;;;11.87;87.53
46506;BME280;32220;49.808;9.968;2024-03-06T10:17:48;99307.94;;;12.05;87.78
46506;BME280;32220;49.808;9.968;2024-03-06T10:20:20;99302.97;;;11.99;86.72
46506;BME280;32220;49.808;9.968;2024-03-06T10:22:49;99319.00;;;12.12;86.80
46506;BME280;32220;49.808;9.968;2024-03-06T10:25:19;99315.59;;;12.24;86.83
46506;BME280;32220;49.808;9.968;2024-03-06T10:28:05;99300.44;;;12.26;85.72
46506;BME280;32220;49.808;9.968;2024-03-06T10:30:34;99312.56;;;12.44;85.83
46506;BME280;32220;49.808;9.968;2024-03-06T10:33:03;99324.50;;;12.66;85.42
46506;BME280;32220;49.808;9.968;2024-03-06T10:35:30;99318.97;;;12.83;85.13
46506;BME280;32220;49.808;9.968;2024-03-06T10:37:59;99319.47;;;13.02;83.74
46506;BME280;32220;49.808;9.968;2024-03-06T10:40:31;99321.06;;;13.19;82.57
46506;BME280;32220;49.808;9.968;2024-03-06T10:42:59;99326.00;;;13.38;81.63
46506;BME280;32220;49.808;9.968;2024-03-06T10:45:38;99311.69;;;13.53;81.17
46506;BME280;32220;49.808;9.968;2024-03-06T10:48:07;99318.13;;;13.88;79.64
46506;BME280;32220;49.808;9.968;2024-03-06T10:50:39;99328.78;;;14.14;79.87
46506;BME280;32220;49.808;9.968;2024-03-06T10:53:08;99338.38;;;14.29;77.00
46506;BME280;32220;49.808;9.968;2024-03-06T10:55:37;99339.44;;;14.39;75.97
46506;BME280;32220;49.808;9.968;2024-03-06T10:58:06;99346.59;;;14.38;74.10
46506;BME280;32220;49.808;9.968;2024-03-06T11:00:38;99339.16;;;14.44;74.77
46506;BME280;32220;49.808;9.968;2024-03-06T11:03:07;99344.03;;;14.50;74.07
46506;BME280;32220;49.808;9.968;2024-03-06T11:05:38;99342.88;;;14.54;73.48
46506;BME280;32220;49.808;9.968;2024-03-06T11:08:06;99348.59;;;14.60;71.98
46506;BME280;32220;49.808;9.968;2024-03-06T11:10:36;99351.81;;;14.65;70.77
46506;BME280;32220;49.808;9.968;2024-03-06T11:13:09;99358.19;;;14.76;71.80
46506;BME280;32220;49.808;9.968;2024-03-06T11:15:50;99363.00;;;14.83;69.90
46506;BME280;32220;49.808;9.968;2024-03-06T11:18:40;99356.13;;;14.92;71.09
46506;BME280;32220;49.808;9.968;2024-03-06T11:21:31;99359.13;;;14.87;71.69
46506;BME280;32220;49.808;9.968;2024-03-06T11:24:13;99347.31;;;14.79;71.86
46506;BME280;32220;49.808;9.968;2024-03-06T11:26:42;99360.09;;;14.73;70.37
46506;BME280;32220;49.808;9.968;2024-03-06T11:29:10;99356.94;;;14.68;70.04
46506;BME280;32220;49.808;9.968;2024-03-06T11:31:38;99350.66;;;14.57;70.73
46506;BME280;32220;49.808;9.968;2024-03-06T11:34:06;99355.56;;;14.50;70.00
46506;BME280;32220;49.808;9.968;2024-03-06T11:36:35;99354.56;;;14.38;70.58
46506;BME280;32220;49.808;9.968;2024-03-06T11:39:04;99349.34;;;14.37;72.29
46506;BME280;32220;49.808;9.968;2024-03-06T11:41:46;99350.41;;;14.34;72.48
46506;BME280;32220;49.808;9.968;2024-03-06T11:44:15;99349.25;;;14.26;71.84
46506;BME280;32220;49.808;9.968;2024-03-06T11:46:44;99346.06;;;14.21;72.93
46506;BME280;32220;49.808;9.968;2024-03-06T11:49:16;99340.50;;;14.24;73.00
46506;BME280;32220;49.808;9.968;2024-03-06T11:51:47;99340.31;;;14.27;73.63
46506;BME280;32220;49.808;9.968;2024-03-06T11:54:14;99344.97;;;14.36;73.92
46506;BME280;32220;49.808;9.968;2024-03-06T11:56:44;99334.44;;;14.47;73.17
46506;BME280;32220;49.808;9.968;2024-03-06T11:59:13;99338.16;;;14.70;73.44
46506;BME280;32220;49.808;9.968;2024-03-06T12:01:40;99348.34;;;14.89;71.69
46506;BME280;32220;49.808;9.968;2024-03-06T12:04:10;99344.34;;;15.07;71.64
46506;BME280;32220;49.808;9.968;2024-03-06T12:06:38;99355.75;;;15.09;67.98
46506;BME280;32220;49.808;9.968;2024-03-06T12:09:05;99349.69;;;15.07;67.43
46506;BME280;32220;49.808;9.968;2024-03-06T12:11:37;99361.66;;;15.25;67.83
46506;BME280;32220;49.808;9.968;2024-03-06T12:14:04;99342.97;;;15.25;68.30
46506;BME280;32220;49.808;9.968;2024-03-06T12:16:32;99356.91;;;15.41;66.86
46506;BME280;32220;49.808;9.968;2024-03-06T12:18:59;99375.91;;;15.37;64.83
46506;BME280;32220;49.808;9.968;2024-03-06T12:21:30;99356.25;;;15.14;63.87
46506;BME280;32220;49.808;9.968;2024-03-06T12:24:05;99360.63;;;15.15;64.72
46506;BME280;32220;49.808;9.968;2024-03-06T12:26:38;99366.03;;;15.02;64.43
46506;BME280;32220;49.808;9.968;2024-03-06T12:29:07;99359.47;;;14.83;64.49
46506;BME280;32220;49.808;9.968;2024-03-06T12:31:36;99369.50;;;14.79;64.53
46506;BME280;32220;49.808;9.968;2024-03-06T12:34:04;99367.13;;;14.74;64.71
46506;BME280;32220;49.808;9.968;2024-03-06T12:36:34;99365.16;;;14.65;64.24
46506;BME280;32220;49.808;9.968;2024-03-06T12:39:03;99369.22;;;14.58;63.88
46506;BME280;32220;49.808;9.968;2024-03-06T12:41:39;99374.00;;;14.66;63.40
46506;BME280;32220;49.808;9.968;2024-03-06T12:44:06;99381.00;;;14.80;62.12
46506;BME280;32220;49.808;9.968;2024-03-06T12:46:34;99371.59;;;14.87;62.33
46506;BME280;32220;49.808;9.968;2024-03-06T12:49:01;99362.84;;;14.85;62.69
46506;BME280;32220;49.808;9.968;2024-03-06T12:51:29;99367.22;;;14.86;62.20
46506;BME280;32220;49.808;9.968;2024-03-06T12:54:00;99377.66;;;15.01;62.86
46506;BME280;32220;49.808;9.968;2024-03-06T12:56:29;99374.13;;;15.01;62.14
46506;BME280;32220;49.808;9.968;2024-03-06T12:58:57;99373.44;;;15.10;62.19
46506;BME280;32220;49.808;9.968;2024-03-06T13:01:24;99353.53;;;15.03;62.03
46506;BME280;32220;49.808;9.968;2024-03-06T13:03:52;99354.06;;;15.08;61.50
46506;BME280;32220;49.808;9.968;2024-03-06T13:06:19;99352.75;;;15.14;60.91
46506;BME280;32220;49.808;9.968;2024-03-06T13:08:47;99369.41;;;15.41;60.20
46506;BME280;32220;49.808;9.968;2024-03-06T13:11:17;99385.16;;;15.80;59.48
46506;BME280;32220;49.808;9.968;2024-03-06T13:13:45;99368.69;;;16.09;59.06
46506;BME280;32220;49.808;9.968;2024-03-06T13:16:13;99363.28;;;16.33;56.94
46506;BME280;32220;49.808;9.968;2024-03-06T13:18:40;99377.16;;;16.60;57.03
46506;BME280;32220;49.808;9.968;2024-03-06T13:21:08;99370.75;;;16.74;56.77
46506;BME280;32220;49.808;9.968;2024-03-06T13:23:35;99395.28;;;17.01;54.85
46506;BME280;32220;49.808;9.968;2024-03-06T13:26:04;99391.59;;;17.24;53.91
46506;BME280;32220;49.808;9.968;2024-03-06T13:28:33;99392.91;;;17.41;53.63
46506;BME280;32220;49.808;9.968;2024-03-06T13:31:01;99389.47;;;17.50;54.65
46506;BME280;32220;49.808;9.968;2024-03-06T13:33:29;99394.63;;;17.42;53.53
46506;BME280;32220;49.808;9.968;2024-03-06T13:35:56;99389.16;;;17.33;53.61
46506;BME280;32220;49.808;9.968;2024-03-06T13:38:23;99407.34;;;17.18;53.02
46506;BME280;32220;49.808;9.968;2024-03-06T13:40:51;99392.50;;;17.03;53.62
46506;BME280;32220;49.808;9.968;2024-03-06T13:43:18;99397.25;;;16.88;52.86
46506;BME280;32220;49.808;9.968;2024-03-06T13:45:51;99402.72;;;16.86;53.12
46506;BME280;32220;49.808;9.968;2024-03-06T13:48:19;99382.28;;;16.85;54.10
46506;BME280;32220;49.808;9.968;2024-03-06T13:50:48;99407.94;;;16.99;53.28
46506;BME280;32220;49.808;9.968;2024-03-06T13:53:15;99403.22;;;17.03;52.78
46506;BME280;32220;49.808;9.968;2024-03-06T13:55:43;99401.84;;;17.08;53.28
46506;BME280;32220;49.808;9.968;2024-03-06T13:58:10;99411.47;;;17.11;51.43
46506;BME280;32220;49.808;9.968;2024-03-06T14:00:38;99411.13;;;17.04;51.58
46506;BME280;32220;49.808;9.968;2024-03-06T14:03:13;99410.50;;;17.01;52.18
46506;BME280;32220;49.808;9.968;2024-03-06T14:05:40;99406.88;;;16.79;51.55
46506;BME280;32220;49.808;9.968;2024-03-06T14:08:08;99406.56;;;16.60;52.61
46506;BME280;32220;49.808;9.968;2024-03-06T14:10:38;99405.44;;;16.29;51.08
46506;BME280;32220;49.808;9.968;2024-03-06T14:13:06;99397.56;;;16.39;52.01
46506;BME280;32220;49.808;9.968;2024-03-06T14:15:34;99408.81;;;16.66;51.62
46506;BME280;32220;49.808;9.968;2024-03-06T14:18:02;99404.63;;;17.07;51.38
46506;BME280;32220;49.808;9.968;2024-03-06T14:20:31;99431.63;;;17.80;48.60
46506;BME280;32220;49.808;9.968;2024-03-06T14:22:59;99434.41;;;18.63;47.21
46506;BME280;32220;49.808;9.968;2024-03-06T14:25:26;99435.22;;;19.55;45.10
46506;BME280;32220;49.808;9.968;2024-03-06T14:27:55;99445.41;;;20.67;44.52
46506;BME280;32220;49.808;9.968;2024-03-06T14:30:23;99451.94;;;21.39;41.57
46506;BME280;32220;49.808;9.968;2024-03-06T14:32:50;99472.13;;;22.07;39.31
46506;BME280;32220;49.808;9.968;2024-03-06T14:35:18;99459.84;;;22.48;39.65
46506;BME280;32220;49.808;9.968;2024-03-06T14:37:47;99466.81;;;22.77;39.95
46506;BME280;32220;49.808;9.968;2024-03-06T14:40:15;99471.50;;;22.31;38.69
46506;BME280;32220;49.808;9.968;2024-03-06T14:42:43;99446.09;;;21.71;40.29
46506;BME280;32220;49.808;9.968;2024-03-06T14:45:10;99455.78;;;21.64;40.43
46506;BME280;32220;49.808;9.968;2024-03-06T14:47:38;99444.19;;;21.36;41.26
46506;BME280;32220;49.808;9.968;2024-03-06T14:50:06;99453.13;;;20.99;41.21
46506;BME280;32220;49.808;9.968;2024-03-06T14:52:33;99440.91;;;20.49;42.59
46506;BME280;32220;49.808;9.968;2024-03-06T14:55:04;99435.81;;;20.07;43.39
46506;BME280;32220;49.808;9.968;2024-03-06T14:57:35;99434.81;;;19.69;43.36
46506;BME280;32220;49.808;9.968;2024-03-06T15:00:02;99439.06;;;19.32;43.46
46506;BME280;32220;49.808;9.968;2024-03-06T15:02:32;99449.47;;;18.76;42.66
46506;BME280;32220;49.808;9.968;2024-03-06T15:05:00;99443.63;;;18.29;44.05
46506;BME280;32220;49.808;9.968;2024-03-06T15:07:28;99436.88;;;17.82;44.74
46506;BME280;32220;49.808;9.968;2024-03-06T15:09:56;99424.78;;;17.55;46.15
46506;BME280;32220;49.808;9.968;2024-03-06T15:12:26;99431.50;;;17.39;46.42
46506;BME280;32220;49.808;9.968;2024-03-06T15:14:54;99428.72;;;17.07;46.51
46506;BME280;32220;49.808;9.968;2024-03-06T15:17:23;99421.22;;;16.78;47.40
46506;BME280;32220;49.808;9.968;2024-03-06T15:19:52;99407.28;;;16.40;48.34
46506;BME280;32220;49.808;9.968;2024-03-06T15:22:19;99420.13;;;16.35;49.10
46506;BME280;32220;49.808;9.968;2024-03-06T15:24:46;99418.88;;;16.05;48.65
46506;BME280;32220;49.808;9.968;2024-03-06T15:27:16;99422.81;;;15.89;49.77
46506;BME280;32220;49.808;9.968;2024-03-06T15:29:45;99399.75;;;15.64;49.72
46506;BME280;32220;49.808;9.968;2024-03-06T15:32:12;99407.81;;;15.75;49.65
46506;BME280;32220;49.808;9.968;2024-03-06T15:34:40;99417.13;;;15.93;50.10
46506;BME280;32220;49.808;9.968;2024-03-06T15:37:07;99403.25;;;15.88;50.11
46506;BME280;32220;49.808;9.968;2024-03-06T15:39:35;99425.53;;;15.76;49.68
46506;BME280;32220;49.808;9.968;2024-03-06T15:42:03;99425.16;;;15.69;50.47
46506;BME280;32220;49.808;9.968;2024-03-06T15:44:30;99424.41;;;15.67;50.69
46506;BME280;32220;49.808;9.968;2024-03-06T15:46:59;99412.00;;;15.42;50.61
46506;BME280;32220;49.808;9.968;2024-03-06T15:49:27;99426.72;;;15.35;51.00
46506;BME280;32220;49.808;9.968;2024-03-06T15:51:55;99423.03;;;15.25;51.83
46506;BME280;32220;49.808;9.968;2024-03-06T15:54:22;99416.56;;;15.17;52.24
46506;BME280;32220;49.808;9.968;2024-03-06T15:56:50;99414.66;;;15.06;52.41
46506;BME280;32220;49.808;9.968;2024-03-06T15:59:17;99413.63;;;14.96;53.04
46506;BME280;32220;49.808;9.968;2024-03-06T16:01:45;99411.09;;;14.82;53.03
46506;BME280;32220;49.808;9.968;2024-03-06T16:04:14;99406.63;;;14.69;53.12
46506;BME280;32220;49.808;9.968;2024-03-06T16:06:43;99409.91;;;14.60;53.07
46506;BME280;32220;49.808;9.968;2024-03-06T16:09:11;99398.50;;;14.33;53.02
46506;BME280;32220;49.808;9.968;2024-03-06T16:11:39;99405.31;;;14.24;52.77
46506;BME280;32220;49.808;9.968;2024-03-06T16:14:07;99421.94;;;14.28;53.14
46506;BME280;32220;49.808;9.968;2024-03-06T16:16:34;99408.47;;;14.04;53.08
46506;BME280;32220;49.808;9.968;2024-03-06T16:19:02;99421.91;;;14.02;53.12
46506;BME280;32220;49.808;9.968;2024-03-06T16:21:31;99423.16;;;13.84;53.60
46506;BME280;32220;49.808;9.968;2024-03-06T16:23:58;99430.00;;;13.74;53.13
46506;BME280;32220;49.808;9.968;2024-03-06T16:26:27;99436.72;;;13.67;53.70
46506;BME280;32220;49.808;9.968;2024-03-06T16:28:55;99426.59;;;13.59;53.78
46506;BME280;32220;49.808;9.968;2024-03-06T16:31:22;99430.50;;;13.54;54.38
46506;BME280;32220;49.808;9.968;2024-03-06T16:33:49;99432.06;;;13.44;54.62
46506;BME280;32220;49.808;9.968;2024-03-06T16:36:17;99426.56;;;13.33;54.59
46506;BME280;32220;49.808;9.968;2024-03-06T16:38:47;99426.84;;;13.14;55.49
46506;BME280;32220;49.808;9.968;2024-03-06T16:41:14;99416.91;;;12.89;55.46
46506;BME280;32220;49.808;9.968;2024-03-06T16:43:42;99427.72;;;12.86;56.12
46506;BME280;32220;49.808;9.968;2024-03-06T16:46:09;99425.09;;;12.72;56.29
46506;BME280;32220;49.808;9.968;2024-03-06T16:48:37;99411.16;;;12.54;57.02
46506;BME280;32220;49.808;9.968;2024-03-06T16:51:04;99430.88;;;12.50;57.19
46506;BME280;32220;49.808;9.968;2024-03-06T16:53:32;99436.06;;;12.37;57.67
46506;BME280;32220;49.808;9.968;2024-03-06T16:56:01;99416.13;;;12.16;57.88
46506;BME280;32220;49.808;9.968;2024-03-06T16:58:28;99432.44;;;12.10;58.25
46506;BME280;32220;49.808;9.968;2024-03-06T17:00:56;99441.88;;;12.00;58.43
46506;BME280;32220;49.808;9.968;2024-03-06T17:03:23;99419.16;;;11.80;58.75
46506;BME280;32220;49.808;9.968;2024-03-06T17:05:51;99440.41;;;11.80;58.52
46506;BME280;32220;49.808;9.968;2024-03-06T17:08:18;99431.31;;;11.68;59.79
46506;BME280;32220;49.808;9.968;2024-03-06T17:10:46;99434.69;;;11.56;59.75
46506;BME280;32220;49.808;9.968;2024-03-06T17:13:16;99443.16;;;11.47;59.94
46506;BME280;32220;49.808;9.968;2024-03-06T17:15:43;99438.34;;;11.38;60.06
46506;BME280;32220;49.808;9.968;2024-03-06T17:18:10;99442.56;;;11.26;59.86
46506;BME280;32220;49.808;9.968;2024-03-06T17:20:39;99444.72;;;11.20;59.97
46506;BME280;32220;49.808;9.968;2024-03-06T17:23:06;99443.50;;;11.09;60.17
46506;BME280;32220;49.808;9.968;2024-03-06T17:25:34;99446.75;;;10.99;60.45
46506;BME280;32220;49.808;9.968;2024-03-06T17:28:01;99445.38;;;10.92;60.73
46506;BME280;32220;49.808;9.968;2024-03-06T17:30:30;99446.72;;;10.83;60.65
46506;BME280;32220;49.808;9.968;2024-03-06T17:32:58;99447.97;;;10.76;60.82
46506;BME280;32220;49.808;9.968;2024-03-06T17:35:25;99440.53;;;10.67;60.92
46506;BME280;32220;49.808;9.968;2024-03-06T17:37:53;99449.75;;;10.60;62.31
46506;BME280;32220;49.808;9.968;2024-03-06T17:40:22;99437.31;;;10.44;63.87
46506;BME280;32220;49.808;9.968;2024-03-06T17:42:51;99438.34;;;10.42;64.33
46506;BME280;32220;49.808;9.968;2024-03-06T17:45:18;99445.75;;;10.35;64.23
46506;BME280;32220;49.808;9.968;2024-03-06T17:47:47;99454.84;;;10.30;64.02
46506;BME280;32220;49.808;9.968;2024-03-06T17:50:15;99451.94;;;10.17;64.42
46506;BME280;32220;49.808;9.968;2024-03-06T17:52:42;99463.34;;;10.19;64.41
46506;BME280;32220;49.808;9.968;2024-03-06T17:55:10;99461.00;;;10.13;64.96
46506;BME280;32220;49.808;9.968;2024-03-06T17:57:38;99464.81;;;10.07;65.61
46506;BME280;32220;49.808;9.968;2024-03-06T18:00:12;99456.34;;;10.01;65.67
46506;BME280;32220;49.808;9.968;2024-03-06T18:02:39;99459.19;;;9.96;67.61
46506;BME280;32220;49.808;9.968;2024-03-06T18:05:09;99455.63;;;9.97;67.31
46506;BME280;32220;49.808;9.968;2024-03-06T18:07:36;99449.63;;;9.94;67.96
46506;BME280;32220;49.808;9.968;2024-03-06T18:10:05;99457.78;;;10.06;67.88
46506;BME280;32220;49.808;9.968;2024-03-06T18:12:33;99457.56;;;10.11;67.64
46506;BME280;32220;49.808;9.968;2024-03-06T18:15:01;99462.09;;;10.26;67.55
46506;BME280;32220;49.808;9.968;2024-03-06T18:17:29;99460.06;;;10.31;67.68
46506;BME280;32220;49.808;9.968;2024-03-06T18:19:57;99460.72;;;10.36;67.38
46506;BME280;32220;49.808;9.968;2024-03-06T18:22:26;99463.94;;;10.41;66.84
46506;BME280;32220;49.808;9.968;2024-03-06T18:24:53;99466.44;;;10.44;67.00
46506;BME280;32220;49.808;9.968;2024-03-06T18:27:21;99466.38;;;10.46;66.88
46506;BME280;32220;49.808;9.968;2024-03-06T18:29:48;99468.00;;;10.49;66.77
46506;BME280;32220;49.808;9.968;2024-03-06T18:32:16;99405.31;;;10.15;66.68
46506;BME280;32220;49.808;9.968;2024-03-06T18:34:43;99473.91;;;10.54;66.85
46506;BME280;32220;49.808;9.968;2024-03-06T18:37:13;99472.81;;;10.58;66.22
46506;BME280;32220;49.808;9.968;2024-03-06T18:39:41;99477.97;;;10.61;66.40
46506;BME280;32220;49.808;9.968;2024-03-06T18:42:10;99481.38;;;10.63;66.52
46506;BME280;32220;49.808;9.968;2024-03-06T18:44:37;99450.41;;;10.48;66.49
46506;BME280;32220;49.808;9.968;2024-03-06T18:47:06;99469.31;;;10.57;66.53
46506;BME280;32220;49.808;9.968;2024-03-06T18:49:33;99452.97;;;10.49;66.21
46506;BME280;32220;49.808;9.968;2024-03-06T18:52:01;99475.91;;;10.66;66.08
46506;BME280;32220;49.808;9.968;2024-03-06T18:54:28;99478.56;;;10.66;66.37
46506;BME280;32220;49.808;9.968;2024-03-06T18:56:57;99477.78;;;10.64;66.88
46506;BME280;32220;49.808;9.968;2024-03-06T18:59:25;99467.66;;;10.55;66.62
46506;BME280;32220;49.808;9.968;2024-03-06T19:01:52;99484.78;;;10.65;66.77
46506;BME280;32220;49.808;9.968;2024-03-06T19:04:20;99486.75;;;10.61;66.94
46506;BME280;32220;49.808;9.968;2024-03-06T19:06:48;99491.13;;;10.62;66.88
46506;BME280;32220;49.808;9.968;2024-03-06T19:09:16;99494.72;;;10.61;66.87
46506;BME280;32220;49.808;9.968;2024-03-06T19:11:45;99487.16;;;10.54;66.60
46506;BME280;32220;49.808;9.968;2024-03-06T19:14:15;99485.19;;;10.57;67.06
46506;BME280;32220;49.808;9.968;2024-03-06T19:16:43;99488.63;;;10.59;66.79
46506;BME280;32220;49.808;9.968;2024-03-06T19:19:10;99489.56;;;10.58;66.55
46506;BME280;32220;49.808;9.968;2024-03-06T19:21:38;99489.72;;;10.55;66.98
